sensor_id;sensor_type;location;lat;lon;timestamp;P1;durP1;ratioP1;P2;durP2;ratioP2
47009;SDS011;59230;54.164;-3.124;2022-08-30T00:00:37;1.92;;;1.10;;
47009;SDS011;59230;54.164;-3.124;2022-08-30T00:03:22;7.40;;;1.20;;
47009;SDS011;59230;54.164;-3.124;2022-08-30T00:05:48;4.82;;;1.33;;
47009;SDS011;59230;54.164;-3.124;2022-08-30T00:08:14;3.47;;;1.17;;
47009;SDS011;59230;54.164;-3.124;2022-08-30T00:10:39;6.20;;;1.30;;
47009;SDS011;59230;54.164;-3.124;2022-08-30T00:13:06;4.55;;;1.60;;
47009;SDS011;59230;54.164;-3.124;2022-08-30T00:15:32;4.13;;;1.40;;
47009;SDS011;59230;54.164;-3.124;2022-08-30T00:17:59;4.22;;;1.77;;
47009;SDS011;59230;54.164;-3.124;2022-08-30T00:20:25;4.82;;;1.50;;
47009;SDS011;59230;54.164;-3.124;2022-08-30T00:22:53;5.30;;;1.33;;
47009;SDS011;59230;54.164;-3.124;2022-08-30T00:25:19;3.35;;;1.45;;
47009;SDS011;59230;54.164;-3.124;2022-08-30T00:27:45;9.18;;;1.40;;
47009;SDS011;59230;54.164;-3.124;2022-08-30T00:30:12;2.20;;;1.20;;
47009;SDS011;59230;54.164;-3.124;2022-08-30T00:32:38;2.97;;;1.40;;
47009;SDS011;59230;54.164;-3.124;2022-08-30T00:35:04;5.18;;;1.60;;
47009;SDS011;59230;54.164;-3.124;2022-08-30T00:37:30;2.25;;;1.20;;
47009;SDS011;59230;54.164;-3.124;2022-08-30T00:39:56;4.05;;;1.30;;
47009;SDS011;59230;54.164;-3.124;2022-08-30T00:42:22;5.82;;;1.40;;
47009;SDS011;59230;54.164;-3.124;2022-08-30T00:44:48;2.90;;;1.52;;
47009;SDS011;59230;54.164;-3.124;2022-08-30T00:47:13;6.35;;;1.48;;
47009;SDS011;59230;54.164;-3.124;2022-08-30T00:49:42;4.43;;;1.60;;
47009;SDS011;59230;54.164;-3.124;2022-08-30T00:52:10;2.25;;;1.17;;
47009;SDS011;59230;54.164;-3.124;2022-08-30T00:54:37;3.00;;;1.20;;
47009;SDS011;59230;54.164;-3.124;2022-08-30T00:57:08;3.47;;;1.30;;
47009;SDS011;59230;54.164;-3.124;2022-08-30T00:59:34;2.40;;;1.40;;
47009;SDS011;59230;54.164;-3.124;2022-08-30T01:02:00;2.13;;;1.25;;
47009;SDS011;59230;54.164;-3.124;2022-08-30T01:04:27;2.67;;;1.30;;
47009;SDS011;59230;54.164;-3.124;2022-08-30T01:06:53;1.85;;;1.33;;
47009;SDS011;59230;54.164;-3.124;2022-08-30T01:09:18;3.47;;;1.67;;
47009;SDS011;59230;54.164;-3.124;2022-08-30T01:11:45;7.20;;;1.48;;
47009;SDS011;59230;54.164;-3.124;2022-08-30T01:14:11;2.60;;;1.63;;
47009;SDS011;59230;54.164;-3.124;2022-08-30T01:16:37;2.35;;;1.60;;
47009;SDS011;59230;54.164;-3.124;2022-08-30T01:19:04;3.20;;;1.27;;
47009;SDS011;59230;54.164;-3.124;2022-08-30T01:21:47;2.08;;;1.35;;
47009;SDS011;59230;54.164;-3.124;2022-08-30T01:24:15;2.90;;;1.88;;
47009;SDS011;59230;54.164;-3.124;2022-08-30T01:26:42;2.20;;;1.50;;
47009;SDS011;59230;54.164;-3.124;2022-08-30T01:29:08;2.67;;;1.80;;
47009;SDS011;59230;54.164;-3.124;2022-08-30T01:31:35;2.40;;;1.50;;
47009;SDS011;59230;54.164;-3.124;2022-08-30T01:34:02;2.70;;;1.40;;
47009;SDS011;59230;54.164;-3.124;2022-08-30T01:36:29;3.95;;;1.45;;
47009;SDS011;59230;54.164;-3.124;2022-08-30T01:38:56;3.20;;;1.38;;
47009;SDS011;59230;54.164;-3.124;2022-08-30T01:43:59;2.50;;;1.45;;
47009;SDS011;59230;54.164;-3.124;2022-08-30T01:46:36;2.42;;;1.30;;
47009;SDS011;59230;54.164;-3.124;2022-08-30T01:49:04;1.63;;;1.30;;
47009;SDS011;59230;54.164;-3.124;2022-08-30T01:51:31;3.13;;;1.27;;
47009;SDS011;59230;54.164;-3.124;2022-08-30T01:53:57;3.47;;;1.17;;
47009;SDS011;59230;54.164;-3.124;2022-08-30T01:56:23;3.10;;;1.35;;
47009;SDS011;59230;54.164;-3.124;2022-08-30T01:58:50;1.52;;;1.20;;
47009;SDS011;59230;54.164;-3.124;2022-08-30T02:01:17;3.75;;;1.40;;
47009;SDS011;59230;54.164;-3.124;2022-08-30T02:03:44;2.45;;;1.10;;
47009;SDS011;59230;54.164;-3.124;2022-08-30T02:06:11;5.47;;;1.60;;
47009;SDS011;59230;54.164;-3.124;2022-08-30T02:08:38;3.05;;;1.20;;
47009;SDS011;59230;54.164;-3.124;2022-08-30T02:11:07;2.88;;;1.60;;
47009;SDS011;59230;54.164;-3.124;2022-08-30T02:13:33;1.80;;;1.25;;
47009;SDS011;59230;54.164;-3.124;2022-08-30T02:16:01;6.15;;;1.73;;
47009;SDS011;59230;54.164;-3.124;2022-08-30T02:18:27;5.22;;;1.45;;
47009;SDS011;59230;54.164;-3.124;2022-08-30T02:20:53;2.63;;;1.50;;
47009;SDS011;59230;54.164;-3.124;2022-08-30T02:23:18;3.90;;;1.70;;
47009;SDS011;59230;54.164;-3.124;2022-08-30T02:25:44;3.85;;;1.90;;
47009;SDS011;59230;54.164;-3.124;2022-08-30T02:28:10;5.13;;;2.10;;
47009;SDS011;59230;54.164;-3.124;2022-08-30T02:30:37;2.47;;;1.70;;
47009;SDS011;59230;54.164;-3.124;2022-08-30T02:33:03;2.70;;;1.60;;
47009;SDS011;59230;54.164;-3.124;2022-08-30T02:35:29;2.45;;;1.67;;
47009;SDS011;59230;54.164;-3.124;2022-08-30T02:37:54;3.55;;;1.60;;
47009;SDS011;59230;54.164;-3.124;2022-08-30T02:40:19;2.58;;;1.50;;
47009;SDS011;59230;54.164;-3.124;2022-08-30T02:42:46;1.60;;;1.40;;
47009;SDS011;59230;54.164;-3.124;2022-08-30T02:45:13;2.03;;;1.20;;
47009;SDS011;59230;54.164;-3.124;2022-08-30T02:47:39;1.48;;;1.20;;
47009;SDS011;59230;54.164;-3.124;2022-08-30T02:50:06;2.38;;;1.20;;
47009;SDS011;59230;54.164;-3.124;2022-08-30T02:52:32;2.80;;;1.33;;
47009;SDS011;59230;54.164;-3.124;2022-08-30T02:54:57;1.52;;;1.10;;
47009;SDS011;59230;54.164;-3.124;2022-08-30T02:57:23;2.35;;;1.30;;
47009;SDS011;59230;54.164;-3.124;2022-08-30T02:59:49;2.40;;;1.42;;
47009;SDS011;59230;54.164;-3.124;2022-08-30T03:02:14;1.63;;;1.30;;
47009;SDS011;59230;54.164;-3.124;2022-08-30T03:04:40;2.63;;;1.25;;
47009;SDS011;59230;54.164;-3.124;2022-08-30T03:07:08;2.08;;;1.42;;
47009;SDS011;59230;54.164;-3.124;2022-08-30T03:09:34;1.70;;;1.27;;
47009;SDS011;59230;54.164;-3.124;2022-08-30T03:12:00;1.20;;;1.10;;
47009;SDS011;59230;54.164;-3.124;2022-08-30T03:14:26;1.70;;;1.20;;
47009;SDS011;59230;54.164;-3.124;2022-08-30T03:16:52;4.15;;;1.17;;
47009;SDS011;59230;54.164;-3.124;2022-08-30T03:19:18;3.58;;;1.10;;
47009;SDS011;59230;54.164;-3.124;2022-08-30T03:21:44;2.90;;;1.77;;
47009;SDS011;59230;54.164;-3.124;2022-08-30T03:24:09;8.35;;;1.30;;
47009;SDS011;59230;54.164;-3.124;2022-08-30T03:26:35;3.15;;;1.40;;
47009;SDS011;59230;54.164;-3.124;2022-08-30T03:29:00;4.30;;;1.40;;
47009;SDS011;59230;54.164;-3.124;2022-08-30T03:31:26;3.08;;;1.20;;
47009;SDS011;59230;54.164;-3.124;2022-08-30T03:33:53;2.75;;;1.40;;
47009;SDS011;59230;54.164;-3.124;2022-08-30T03:36:19;1.92;;;1.20;;
47009;SDS011;59230;54.164;-3.124;2022-08-30T03:38:45;3.00;;;1.33;;
47009;SDS011;59230;54.164;-3.124;2022-08-30T03:41:11;2.03;;;1.30;;
47009;SDS011;59230;54.164;-3.124;2022-08-30T03:43:36;3.55;;;1.48;;
47009;SDS011;59230;54.164;-3.124;2022-08-30T03:46:02;3.92;;;1.35;;
47009;SDS011;59230;54.164;-3.124;2022-08-30T03:48:27;3.83;;;1.30;;
47009;SDS011;59230;54.164;-3.124;2022-08-30T03:50:53;3.25;;;1.45;;
47009;SDS011;59230;54.164;-3.124;2022-08-30T03:53:19;2.15;;;1.20;;
47009;SDS011;59230;54.164;-3.124;2022-08-30T03:55:44;1.77;;;1.48;;
47009;SDS011;59230;54.164;-3.124;2022-08-30T03:58:10;4.35;;;1.40;;
47009;SDS011;59230;54.164;-3.124;2022-08-30T04:00:35;3.78;;;1.90;;
47009;SDS011;59230;54.164;-3.124;2022-08-30T04:03:01;4.85;;;1.75;;
47009;SDS011;59230;54.164;-3.124;2022-08-30T04:05:27;5.18;;;1.55;;
47009;SDS011;59230;54.164;-3.124;2022-08-30T04:07:52;4.43;;;1.70;;
47009;SDS011;59230;54.164;-3.124;2022-08-30T04:10:18;3.88;;;1.63;;
47009;SDS011;59230;54.164;-3.124;2022-08-30T04:12:47;2.75;;;1.45;;
47009;SDS011;59230;54.164;-3.124;2022-08-30T04:15:13;4.47;;;2.10;;
47009;SDS011;59230;54.164;-3.124;2022-08-30T04:17:39;3.08;;;1.75;;
47009;SDS011;59230;54.164;-3.124;2022-08-30T04:20:05;3.60;;;1.83;;
47009;SDS011;59230;54.164;-3.124;2022-08-30T04:22:31;4.45;;;1.63;;
47009;SDS011;59230;54.164;-3.124;2022-08-30T04:24:56;3.35;;;1.90;;
47009;SDS011;59230;54.164;-3.124;2022-08-30T04:27:22;8.40;;;2.38;;
47009;SDS011;59230;54.164;-3.124;2022-08-30T04:29:48;4.53;;;1.92;;
47009;SDS011;59230;54.164;-3.124;2022-08-30T04:32:14;3.42;;;1.90;;
47009;SDS011;59230;54.164;-3.124;2022-08-30T04:34:40;2.92;;;2.10;;
47009;SDS011;59230;54.164;-3.124;2022-08-30T04:37:06;3.20;;;2.03;;
47009;SDS011;59230;54.164;-3.124;2022-08-30T04:39:31;8.15;;;2.08;;
47009;SDS011;59230;54.164;-3.124;2022-08-30T04:41:57;3.85;;;2.00;;
47009;SDS011;59230;54.164;-3.124;2022-08-30T04:44:22;3.63;;;2.20;;
47009;SDS011;59230;54.164;-3.124;2022-08-30T04:46:49;4.25;;;2.00;;
47009;SDS011;59230;54.164;-3.124;2022-08-30T04:49:15;5.47;;;2.55;;
47009;SDS011;59230;54.164;-3.124;2022-08-30T04:51:40;7.30;;;2.70;;
47009;SDS011;59230;54.164;-3.124;2022-08-30T04:54:06;5.25;;;1.92;;
47009;SDS011;59230;54.164;-3.124;2022-08-30T04:56:31;4.47;;;2.60;;
47009;SDS011;59230;54.164;-3.124;2022-08-30T04:58:57;5.45;;;2.50;;
47009;SDS011;59230;54.164;-3.124;2022-08-30T05:01:27;3.45;;;2.30;;
47009;SDS011;59230;54.164;-3.124;2022-08-30T05:03:54;7.05;;;3.80;;
47009;SDS011;59230;54.164;-3.124;2022-08-30T05:06:21;7.78;;;3.25;;
47009;SDS011;59230;54.164;-3.124;2022-08-30T05:08:47;5.78;;;3.05;;
47009;SDS011;59230;54.164;-3.124;2022-08-30T05:11:13;8.95;;;3.00;;
47009;SDS011;59230;54.164;-3.124;2022-08-30T05:13:39;8.10;;;3.30;;
47009;SDS011;59230;54.164;-3.124;2022-08-30T05:16:05;7.18;;;3.38;;
47009;SDS011;59230;54.164;-3.124;2022-08-30T05:18:32;6.55;;;3.30;;
47009;SDS011;59230;54.164;-3.124;2022-08-30T05:21:31;6.65;;;3.40;;
47009;SDS011;59230;54.164;-3.124;2022-08-30T05:23:55;5.70;;;3.25;;
47009;SDS011;59230;54.164;-3.124;2022-08-30T05:26:23;4.82;;;3.17;;
47009;SDS011;59230;54.164;-3.124;2022-08-30T05:28:49;6.65;;;3.97;;
47009;SDS011;59230;54.164;-3.124;2022-08-30T05:31:20;6.32;;;3.58;;
47009;SDS011;59230;54.164;-3.124;2022-08-30T05:33:47;8.60;;;3.58;;
47009;SDS011;59230;54.164;-3.124;2022-08-30T05:36:13;12.40;;;3.50;;
47009;SDS011;59230;54.164;-3.124;2022-08-30T05:38:40;7.05;;;3.78;;
47009;SDS011;59230;54.164;-3.124;2022-08-30T05:41:06;14.85;;;4.45;;
47009;SDS011;59230;54.164;-3.124;2022-08-30T05:43:31;10.32;;;3.97;;
47009;SDS011;59230;54.164;-3.124;2022-08-30T05:45:58;6.32;;;3.97;;
47009;SDS011;59230;54.164;-3.124;2022-08-30T05:48:27;6.93;;;3.80;;
47009;SDS011;59230;54.164;-3.124;2022-08-30T05:53:49;7.28;;;3.95;;
47009;SDS011;59230;54.164;-3.124;2022-08-30T05:56:17;6.68;;;3.28;;
47009;SDS011;59230;54.164;-3.124;2022-08-30T05:58:44;7.00;;;4.15;;
47009;SDS011;59230;54.164;-3.124;2022-08-30T06:01:23;7.18;;;3.60;;
47009;SDS011;59230;54.164;-3.124;2022-08-30T06:03:54;9.52;;;3.92;;
47009;SDS011;59230;54.164;-3.124;2022-08-30T06:06:21;4.80;;;3.45;;
47009;SDS011;59230;54.164;-3.124;2022-08-30T06:08:47;4.85;;;3.17;;
47009;SDS011;59230;54.164;-3.124;2022-08-30T06:11:14;8.07;;;3.00;;
47009;SDS011;59230;54.164;-3.124;2022-08-30T06:13:41;6.55;;;3.20;;
47009;SDS011;59230;54.164;-3.124;2022-08-30T06:16:07;7.00;;;2.88;;
47009;SDS011;59230;54.164;-3.124;2022-08-30T06:18:35;4.25;;;2.58;;
47009;SDS011;59230;54.164;-3.124;2022-08-30T06:21:01;6.47;;;2.45;;
47009;SDS011;59230;54.164;-3.124;2022-08-30T06:23:27;6.68;;;2.30;;
47009;SDS011;59230;54.164;-3.124;2022-08-30T06:25:53;4.72;;;2.08;;
47009;SDS011;59230;54.164;-3.124;2022-08-30T06:28:18;4.38;;;2.33;;
47009;SDS011;59230;54.164;-3.124;2022-08-30T06:30:44;3.25;;;1.98;;
47009;SDS011;59230;54.164;-3.124;2022-08-30T06:33:09;2.67;;;1.67;;
47009;SDS011;59230;54.164;-3.124;2022-08-30T06:35:35;7.07;;;1.60;;
47009;SDS011;59230;54.164;-3.124;2022-08-30T06:38:01;5.93;;;1.88;;
47009;SDS011;59230;54.164;-3.124;2022-08-30T06:40:27;3.97;;;1.83;;
47009;SDS011;59230;54.164;-3.124;2022-08-30T06:42:53;4.13;;;1.80;;
47009;SDS011;59230;54.164;-3.124;2022-08-30T06:45:19;1.85;;;1.33;;
47009;SDS011;59230;54.164;-3.124;2022-08-30T06:47:44;3.22;;;1.70;;
47009;SDS011;59230;54.164;-3.124;2022-08-30T06:50:11;2.90;;;1.30;;
47009;SDS011;59230;54.164;-3.124;2022-08-30T06:52:38;3.50;;;1.58;;
47009;SDS011;59230;54.164;-3.124;2022-08-30T06:55:04;5.35;;;1.30;;
47009;SDS011;59230;54.164;-3.124;2022-08-30T06:57:30;5.65;;;1.38;;
47009;SDS011;59230;54.164;-3.124;2022-08-30T06:59:56;7.47;;;1.80;;
47009;SDS011;59230;54.164;-3.124;2022-08-30T07:02:22;3.97;;;1.45;;
47009;SDS011;59230;54.164;-3.124;2022-08-30T07:04:48;5.18;;;1.40;;
47009;SDS011;59230;54.164;-3.124;2022-08-30T07:10:25;2.88;;;1.60;;
47009;SDS011;59230;54.164;-3.124;2022-08-30T07:12:50;4.72;;;1.45;;
47009;SDS011;59230;54.164;-3.124;2022-08-30T07:15:16;4.93;;;1.63;;
47009;SDS011;59230;54.164;-3.124;2022-08-30T07:17:44;2.10;;;1.30;;
47009;SDS011;59230;54.164;-3.124;2022-08-30T07:20:28;6.05;;;1.95;;
47009;SDS011;59230;54.164;-3.124;2022-08-30T07:29:32;5.97;;;1.70;;
47009;SDS011;59230;54.164;-3.124;2022-08-30T07:31:57;4.07;;;1.42;;
47009;SDS011;59230;54.164;-3.124;2022-08-30T07:34:22;6.20;;;1.15;;
47009;SDS011;59230;54.164;-3.124;2022-08-30T07:36:48;4.95;;;2.00;;
47009;SDS011;59230;54.164;-3.124;2022-08-30T07:39:13;4.85;;;1.20;;
47009;SDS011;59230;54.164;-3.124;2022-08-30T07:41:39;3.72;;;1.65;;
47009;SDS011;59230;54.164;-3.124;2022-08-30T07:44:05;2.88;;;1.10;;
47009;SDS011;59230;54.164;-3.124;2022-08-30T07:46:32;2.80;;;1.05;;
47009;SDS011;59230;54.164;-3.124;2022-08-30T07:48:58;5.32;;;1.40;;
47009;SDS011;59230;54.164;-3.124;2022-08-30T07:51:24;3.28;;;1.13;;
47009;SDS011;59230;54.164;-3.124;2022-08-30T07:53:51;3.90;;;1.23;;
47009;SDS011;59230;54.164;-3.124;2022-08-30T08:00:15;4.82;;;1.25;;
47009;SDS011;59230;54.164;-3.124;2022-08-30T08:02:50;2.42;;;1.00;;
47009;SDS011;59230;54.164;-3.124;2022-08-30T08:05:16;3.30;;;0.98;;
47009;SDS011;59230;54.164;-3.124;2022-08-30T08:07:41;3.03;;;1.20;;
47009;SDS011;59230;54.164;-3.124;2022-08-30T08:10:07;1.67;;;0.80;;
47009;SDS011;59230;54.164;-3.124;2022-08-30T08:12:33;2.13;;;1.00;;
47009;SDS011;59230;54.164;-3.124;2022-08-30T08:15:01;3.65;;;1.08;;
47009;SDS011;59230;54.164;-3.124;2022-08-30T08:17:27;3.28;;;0.90;;
47009;SDS011;59230;54.164;-3.124;2022-08-30T08:19:52;3.35;;;1.38;;
47009;SDS011;59230;54.164;-3.124;2022-08-30T08:22:18;3.30;;;1.05;;
47009;SDS011;59230;54.164;-3.124;2022-08-30T08:24:43;5.55;;;1.05;;
47009;SDS011;59230;54.164;-3.124;2022-08-30T08:27:09;3.38;;;1.50;;
47009;SDS011;59230;54.164;-3.124;2022-08-30T08:29:34;2.47;;;1.10;;
47009;SDS011;59230;54.164;-3.124;2022-08-30T08:32:00;2.50;;;1.02;;
47009;SDS011;59230;54.164;-3.124;2022-08-30T08:34:25;6.05;;;1.30;;
47009;SDS011;59230;54.164;-3.124;2022-08-30T08:36:51;3.65;;;1.10;;
47009;SDS011;59230;54.164;-3.124;2022-08-30T08:39:17;2.58;;;1.40;;
47009;SDS011;59230;54.164;-3.124;2022-08-30T08:47:10;2.03;;;1.10;;
47009;SDS011;59230;54.164;-3.124;2022-08-30T08:50:00;2.67;;;0.80;;
47009;SDS011;59230;54.164;-3.124;2022-08-30T08:52:44;1.52;;;0.88;;
47009;SDS011;59230;54.164;-3.124;2022-08-30T08:55:32;4.05;;;1.00;;
47009;SDS011;59230;54.164;-3.124;2022-08-30T08:57:58;3.28;;;1.00;;
47009;SDS011;59230;54.164;-3.124;2022-08-30T09:00:23;6.25;;;1.00;;
47009;SDS011;59230;54.164;-3.124;2022-08-30T09:02:55;3.95;;;0.90;;
47009;SDS011;59230;54.164;-3.124;2022-08-30T09:05:24;3.30;;;1.15;;
47009;SDS011;59230;54.164;-3.124;2022-08-30T09:08:01;5.45;;;1.30;;
47009;SDS011;59230;54.164;-3.124;2022-08-30T09:10:29;1.85;;;1.10;;
47009;SDS011;59230;54.164;-3.124;2022-08-30T09:12:56;4.78;;;1.00;;
47009;SDS011;59230;54.164;-3.124;2022-08-30T09:15:24;4.82;;;1.10;;
47009;SDS011;59230;54.164;-3.124;2022-08-30T09:17:53;3.35;;;1.00;;
47009;SDS011;59230;54.164;-3.124;2022-08-30T09:20:35;3.67;;;1.05;;
47009;SDS011;59230;54.164;-3.124;2022-08-30T09:26:02;2.00;;;1.10;;
47009;SDS011;59230;54.164;-3.124;2022-08-30T09:31:16;4.30;;;1.13;;
47009;SDS011;59230;54.164;-3.124;2022-08-30T09:44:16;1.83;;;0.90;;
47009;SDS011;59230;54.164;-3.124;2022-08-30T09:49:35;4.82;;;1.30;;
47009;SDS011;59230;54.164;-3.124;2022-08-30T09:57:46;2.00;;;0.98;;
47009;SDS011;59230;54.164;-3.124;2022-08-30T10:00:21;1.98;;;0.80;;
47009;SDS011;59230;54.164;-3.124;2022-08-30T10:02:58;2.35;;;0.93;;
47009;SDS011;59230;54.164;-3.124;2022-08-30T10:10:58;4.32;;;1.10;;
47009;SDS011;59230;54.164;-3.124;2022-08-30T10:19:02;2.63;;;1.00;;
47009;SDS011;59230;54.164;-3.124;2022-08-30T10:21:36;4.18;;;0.75;;
47009;SDS011;59230;54.164;-3.124;2022-08-30T10:24:06;4.13;;;0.95;;
47009;SDS011;59230;54.164;-3.124;2022-08-30T10:29:09;2.83;;;1.13;;
47009;SDS011;59230;54.164;-3.124;2022-08-30T10:31:46;2.45;;;0.70;;
47009;SDS011;59230;54.164;-3.124;2022-08-30T10:36:46;3.08;;;0.98;;
47009;SDS011;59230;54.164;-3.124;2022-08-30T10:39:20;2.40;;;1.05;;
47009;SDS011;59230;54.164;-3.124;2022-08-30T10:41:49;5.35;;;0.80;;
47009;SDS011;59230;54.164;-3.124;2022-08-30T10:47:00;5.93;;;1.05;;
47009;SDS011;59230;54.164;-3.124;2022-08-30T10:49:39;1.88;;;0.70;;
47009;SDS011;59230;54.164;-3.124;2022-08-30T10:52:15;5.50;;;0.98;;
47009;SDS011;59230;54.164;-3.124;2022-08-30T10:54:57;1.58;;;0.80;;
47009;SDS011;59230;54.164;-3.124;2022-08-30T10:57:39;2.25;;;0.80;;
47009;SDS011;59230;54.164;-3.124;2022-08-30T11:00:12;3.03;;;0.70;;
47009;SDS011;59230;54.164;-3.124;2022-08-30T11:05:44;4.25;;;1.10;;
47009;SDS011;59230;54.164;-3.124;2022-08-30T11:11:29;2.13;;;0.90;;
47009;SDS011;59230;54.164;-3.124;2022-08-30T11:14:00;2.45;;;0.90;;
47009;SDS011;59230;54.164;-3.124;2022-08-30T11:16:34;1.23;;;0.70;;
47009;SDS011;59230;54.164;-3.124;2022-08-30T11:19:02;2.55;;;0.60;;
47009;SDS011;59230;54.164;-3.124;2022-08-30T11:21:32;1.30;;;0.85;;
47009;SDS011;59230;54.164;-3.124;2022-08-30T11:24:18;3.20;;;0.90;;
47009;SDS011;59230;54.164;-3.124;2022-08-30T11:26:49;3.53;;;0.85;;
47009;SDS011;59230;54.164;-3.124;2022-08-30T11:40:00;2.55;;;1.00;;
47009;SDS011;59230;54.164;-3.124;2022-08-30T11:47:53;2.13;;;0.63;;
47009;SDS011;59230;54.164;-3.124;2022-08-30T11:55:53;1.50;;;0.80;;
47009;SDS011;59230;54.164;-3.124;2022-08-30T11:58:39;1.35;;;0.73;;
47009;SDS011;59230;54.164;-3.124;2022-08-30T12:03:53;2.35;;;0.70;;
47009;SDS011;59230;54.164;-3.124;2022-08-30T12:09:03;2.83;;;0.75;;
47009;SDS011;59230;54.164;-3.124;2022-08-30T12:13:58;3.97;;;0.88;;
47009;SDS011;59230;54.164;-3.124;2022-08-30T12:16:39;1.80;;;0.73;;
47009;SDS011;59230;54.164;-3.124;2022-08-30T12:19:26;1.70;;;0.70;;
47009;SDS011;59230;54.164;-3.124;2022-08-30T12:21:54;3.60;;;0.98;;
47009;SDS011;59230;54.164;-3.124;2022-08-30T12:24:25;2.95;;;0.80;;
47009;SDS011;59230;54.164;-3.124;2022-08-30T12:30:06;2.33;;;1.02;;
47009;SDS011;59230;54.164;-3.124;2022-08-30T12:32:32;1.85;;;0.90;;
47009;SDS011;59230;54.164;-3.124;2022-08-30T12:35:04;2.72;;;0.88;;
47009;SDS011;59230;54.164;-3.124;2022-08-30T12:37:37;5.38;;;1.00;;
47009;SDS011;59230;54.164;-3.124;2022-08-30T12:40:06;3.42;;;0.98;;
47009;SDS011;59230;54.164;-3.124;2022-08-30T12:42:35;2.65;;;0.80;;
47009;SDS011;59230;54.164;-3.124;2022-08-30T12:45:08;1.27;;;0.80;;
47009;SDS011;59230;54.164;-3.124;2022-08-30T12:50:12;5.28;;;1.30;;
47009;SDS011;59230;54.164;-3.124;2022-08-30T12:52:42;9.88;;;1.27;;
47009;SDS011;59230;54.164;-3.124;2022-08-30T12:57:56;2.47;;;1.20;;
47009;SDS011;59230;54.164;-3.124;2022-08-30T13:00:38;3.33;;;0.90;;
47009;SDS011;59230;54.164;-3.124;2022-08-30T13:03:24;2.70;;;1.00;;
47009;SDS011;59230;54.164;-3.124;2022-08-30T13:05:58;1.55;;;0.98;;
47009;SDS011;59230;54.164;-3.124;2022-08-30T13:13:26;2.95;;;1.10;;
47009;SDS011;59230;54.164;-3.124;2022-08-30T13:18:33;2.50;;;0.98;;
47009;SDS011;59230;54.164;-3.124;2022-08-30T13:21:20;2.28;;;0.80;;
47009;SDS011;59230;54.164;-3.124;2022-08-30T13:23:49;4.13;;;1.40;;
47009;SDS011;59230;54.164;-3.124;2022-08-30T13:26:15;4.72;;;1.30;;
47009;SDS011;59230;54.164;-3.124;2022-08-30T13:31:22;4.00;;;1.15;;
47009;SDS011;59230;54.164;-3.124;2022-08-30T13:33:49;2.97;;;1.10;;
47009;SDS011;59230;54.164;-3.124;2022-08-30T13:36:29;3.20;;;1.10;;
47009;SDS011;59230;54.164;-3.124;2022-08-30T13:38:56;6.10;;;1.10;;
47009;SDS011;59230;54.164;-3.124;2022-08-30T13:41:23;2.40;;;1.23;;
47009;SDS011;59230;54.164;-3.124;2022-08-30T13:43:50;5.80;;;2.10;;
47009;SDS011;59230;54.164;-3.124;2022-08-30T13:46:16;7.50;;;3.30;;
47009;SDS011;59230;54.164;-3.124;2022-08-30T13:48:41;3.97;;;1.80;;
47009;SDS011;59230;54.164;-3.124;2022-08-30T13:51:07;3.42;;;1.45;;
47009;SDS011;59230;54.164;-3.124;2022-08-30T13:53:33;1.88;;;0.90;;
47009;SDS011;59230;54.164;-3.124;2022-08-30T13:55:59;4.53;;;1.10;;
47009;SDS011;59230;54.164;-3.124;2022-08-30T13:58:25;3.67;;;1.02;;
47009;SDS011;59230;54.164;-3.124;2022-08-30T14:00:51;2.70;;;1.13;;
47009;SDS011;59230;54.164;-3.124;2022-08-30T14:03:16;1.80;;;1.00;;
47009;SDS011;59230;54.164;-3.124;2022-08-30T14:05:42;8.45;;;1.40;;
47009;SDS011;59230;54.164;-3.124;2022-08-30T14:08:09;2.97;;;1.10;;
47009;SDS011;59230;54.164;-3.124;2022-08-30T14:10:36;3.10;;;1.08;;
47009;SDS011;59230;54.164;-3.124;2022-08-30T14:13:02;3.70;;;1.20;;
47009;SDS011;59230;54.164;-3.124;2022-08-30T14:15:29;9.98;;;4.40;;
47009;SDS011;59230;54.164;-3.124;2022-08-30T14:17:56;7.88;;;2.40;;
47009;SDS011;59230;54.164;-3.124;2022-08-30T14:20:21;3.80;;;1.15;;
47009;SDS011;59230;54.164;-3.124;2022-08-30T14:22:47;8.27;;;1.83;;
47009;SDS011;59230;54.164;-3.124;2022-08-30T14:25:13;4.82;;;1.10;;
47009;SDS011;59230;54.164;-3.124;2022-08-30T14:27:38;4.20;;;1.05;;
47009;SDS011;59230;54.164;-3.124;2022-08-30T14:30:04;5.13;;;1.10;;
47009;SDS011;59230;54.164;-3.124;2022-08-30T14:32:31;5.95;;;1.00;;
47009;SDS011;59230;54.164;-3.124;2022-08-30T14:34:56;2.75;;;1.27;;
47009;SDS011;59230;54.164;-3.124;2022-08-30T14:37:22;3.03;;;1.00;;
47009;SDS011;59230;54.164;-3.124;2022-08-30T14:39:47;1.55;;;0.85;;
47009;SDS011;59230;54.164;-3.124;2022-08-30T14:42:13;5.18;;;1.15;;
47009;SDS011;59230;54.164;-3.124;2022-08-30T14:44:39;4.68;;;0.95;;
47009;SDS011;59230;54.164;-3.124;2022-08-30T14:47:04;1.92;;;0.85;;
47009;SDS011;59230;54.164;-3.124;2022-08-30T14:49:31;4.40;;;1.15;;
47009;SDS011;59230;54.164;-3.124;2022-08-30T15:38:12;4.03;;;1.10;;
47009;SDS011;59230;54.164;-3.124;2022-08-30T15:40:37;4.03;;;1.00;;
47009;SDS011;59230;54.164;-3.124;2022-08-30T15:43:03;4.13;;;1.20;;
47009;SDS011;59230;54.164;-3.124;2022-08-30T15:45:29;9.23;;;1.20;;
47009;SDS011;59230;54.164;-3.124;2022-08-30T15:47:58;5.85;;;1.15;;
47009;SDS011;59230;54.164;-3.124;2022-08-30T15:50:24;2.50;;;1.02;;
47009;SDS011;59230;54.164;-3.124;2022-08-30T15:52:50;6.60;;;1.20;;
47009;SDS011;59230;54.164;-3.124;2022-08-30T15:55:16;4.38;;;1.02;;
47009;SDS011;59230;54.164;-3.124;2022-08-30T15:57:42;2.72;;;0.90;;
47009;SDS011;59230;54.164;-3.124;2022-08-30T16:00:08;2.08;;;1.00;;
47009;SDS011;59230;54.164;-3.124;2022-08-30T16:02:35;4.05;;;1.00;;
47009;SDS011;59230;54.164;-3.124;2022-08-30T16:05:00;4.28;;;0.98;;
47009;SDS011;59230;54.164;-3.124;2022-08-30T16:07:26;3.60;;;1.20;;
47009;SDS011;59230;54.164;-3.124;2022-08-30T16:09:52;3.40;;;1.20;;
47009;SDS011;59230;54.164;-3.124;2022-08-30T16:12:17;0.98;;;0.70;;
47009;SDS011;59230;54.164;-3.124;2022-08-30T16:14:43;2.75;;;1.23;;
47009;SDS011;59230;54.164;-3.124;2022-08-30T16:17:08;2.58;;;1.10;;
47009;SDS011;59230;54.164;-3.124;2022-08-30T16:19:34;2.90;;;0.85;;
47009;SDS011;59230;54.164;-3.124;2022-08-30T16:21:59;2.92;;;0.90;;
47009;SDS011;59230;54.164;-3.124;2022-08-30T16:24:25;3.40;;;1.10;;
47009;SDS011;59230;54.164;-3.124;2022-08-30T16:26:51;1.73;;;1.13;;
47009;SDS011;59230;54.164;-3.124;2022-08-30T16:29:17;2.28;;;1.00;;
47009;SDS011;59230;54.164;-3.124;2022-08-30T16:31:43;6.10;;;1.20;;
47009;SDS011;59230;54.164;-3.124;2022-08-30T16:34:09;3.47;;;1.00;;
47009;SDS011;59230;54.164;-3.124;2022-08-30T16:36:36;4.72;;;1.10;;
47009;SDS011;59230;54.164;-3.124;2022-08-30T16:39:04;3.25;;;0.93;;
47009;SDS011;59230;54.164;-3.124;2022-08-30T16:41:31;4.22;;;1.10;;
47009;SDS011;59230;54.164;-3.124;2022-08-30T16:43:56;5.10;;;1.00;;
47009;SDS011;59230;54.164;-3.124;2022-08-30T16:46:23;3.42;;;1.00;;
47009;SDS011;59230;54.164;-3.124;2022-08-30T16:48:49;4.38;;;1.10;;
47009;SDS011;59230;54.164;-3.124;2022-08-30T16:51:15;4.13;;;1.20;;
47009;SDS011;59230;54.164;-3.124;2022-08-30T16:53:45;4.15;;;0.98;;
47009;SDS011;59230;54.164;-3.124;2022-08-30T16:56:12;6.78;;;0.98;;
47009;SDS011;59230;54.164;-3.124;2022-08-30T16:58:40;3.50;;;1.02;;
47009;SDS011;59230;54.164;-3.124;2022-08-30T17:01:07;4.43;;;1.17;;
47009;SDS011;59230;54.164;-3.124;2022-08-30T17:03:32;3.33;;;0.95;;
47009;SDS011;59230;54.164;-3.124;2022-08-30T17:05:58;7.70;;;4.45;;
47009;SDS011;59230;54.164;-3.124;2022-08-30T17:08:24;8.82;;;5.57;;
47009;SDS011;59230;54.164;-3.124;2022-08-30T17:10:49;6.60;;;2.05;;
47009;SDS011;59230;54.164;-3.124;2022-08-30T17:13:15;10.13;;;2.33;;
47009;SDS011;59230;54.164;-3.124;2022-08-30T17:15:41;6.85;;;1.38;;
47009;SDS011;59230;54.164;-3.124;2022-08-30T17:18:09;5.28;;;1.38;;
47009;SDS011;59230;54.164;-3.124;2022-08-30T17:20:41;5.40;;;1.30;;
47009;SDS011;59230;54.164;-3.124;2022-08-30T17:23:07;6.82;;;1.55;;
47009;SDS011;59230;54.164;-3.124;2022-08-30T17:25:33;3.90;;;1.40;;